createdAt,value
2017-12-02T00:01:14.811Z,87.53
2017-12-02T00:03:42.290Z,87.38
2017-12-02T00:06:09.731Z,87.23
2017-12-02T00:08:37.191Z,86.93
2017-12-02T00:11:04.649Z,87.14
2017-12-02T00:13:32.144Z,87.24
2017-12-02T00:15:59.623Z,87.61
2017-12-02T00:18:27.117Z,87.60
2017-12-02T00:20:54.577Z,88.00
2017-12-02T00:23:22.053Z,88.12
2017-12-02T00:25:49.518Z,88.35
2017-12-02T00:28:17.004Z,87.33
2017-12-02T00:30:44.484Z,87.24
2017-12-02T00:33:11.971Z,87.85
2017-12-02T00:35:39.415Z,87.92
2017-12-02T00:38:06.869Z,88.17
2017-12-02T00:40:34.344Z,86.69
2017-12-02T00:43:01.880Z,87.08
2017-12-02T00:45:29.347Z,87.55
2017-12-02T00:47:57.710Z,87.21
2017-12-02T00:50:25.178Z,87.92
2017-12-02T00:52:52.644Z,87.85
2017-12-02T00:55:20.127Z,86.93
2017-12-02T00:57:47.607Z,85.77
2017-12-02T01:00:15.085Z,86.29
2017-12-02T01:02:42.553Z,87.15
2017-12-02T01:05:10.037Z,87.65
2017-12-02T01:07:37.483Z,87.92
2017-12-02T01:10:04.954Z,88.26
2017-12-02T01:12:32.421Z,87.83
2017-12-02T01:14:59.890Z,87.73
2017-12-02T01:17:27.355Z,87.65
2017-12-02T01:19:54.873Z,87.57
2017-12-02T01:22:22.356Z,88.05
2017-12-02T01:24:49.807Z,87.41
2017-12-02T01:27:17.295Z,87.96
2017-12-02T01:29:44.755Z,88.25
2017-12-02T01:32:12.231Z,88.21
2017-12-02T01:34:39.697Z,87.72
2017-12-02T01:37:07.203Z,87.37
2017-12-02T01:39:34.659Z,86.76
2017-12-02T01:42:02.170Z,87.48
2017-12-02T01:44:29.642Z,87.61
2017-12-02T01:46:57.111Z,87.36
2017-12-02T01:49:24.589Z,87.42
2017-12-02T01:51:52.052Z,87.56
2017-12-02T01:54:19.558Z,87.12
2017-12-02T01:56:47.104Z,87.08
2017-12-02T01:59:14.580Z,86.99
2017-12-02T02:01:42.028Z,87.27
2017-12-02T02:04:09.557Z,86.99
2017-12-02T02:06:37.018Z,86.65
2017-12-02T02:09:04.506Z,86.88
2017-12-02T02:11:31.964Z,87.37
2017-12-02T02:13:59.441Z,87.09
2017-12-02T02:16:26.898Z,87.21
2017-12-02T02:18:54.437Z,87.32
2017-12-02T02:21:21.915Z,87.27
2017-12-02T02:23:49.373Z,87.31
2017-12-02T02:26:16.854Z,87.36
2017-12-02T02:28:44.308Z,87.24
2017-12-02T02:31:11.785Z,87.68
2017-12-02T02:33:39.235Z,87.24
2017-12-02T02:36:06.814Z,86.59
2017-12-02T02:38:34.382Z,87.11
2017-12-02T02:41:01.894Z,87.73
2017-12-02T02:43:29.361Z,87.16
2017-12-02T02:45:56.901Z,86.22
2017-12-02T02:48:24.369Z,87.04
2017-12-02T02:50:51.873Z,86.26
2017-12-02T02:53:19.429Z,85.75
2017-12-02T02:55:46.989Z,85.73
2017-12-02T02:58:14.461Z,85.69
2017-12-02T03:00:41.941Z,86.02
2017-12-02T03:03:09.410Z,85.92
2017-12-02T03:05:37.175Z,86.98
2017-12-02T03:08:04.637Z,87.65
2017-12-02T03:10:32.096Z,87.56
2017-12-02T03:12:59.564Z,88.04
2017-12-02T03:15:27.053Z,88.09
2017-12-02T03:17:54.531Z,88.04
2017-12-02T03:20:22.058Z,86.60
2017-12-02T03:22:49.547Z,86.14
2017-12-02T03:25:17.005Z,85.76
2017-12-02T03:27:44.484Z,86.13
2017-12-02T03:30:11.965Z,86.13
2017-12-02T03:32:39.448Z,86.64
2017-12-02T03:35:06.969Z,87.12
2017-12-02T03:37:34.450Z,86.64
2017-12-02T03:40:01.926Z,86.05
2017-12-02T03:42:29.429Z,86.45
2017-12-02T03:44:56.937Z,86.86
2017-12-02T03:47:24.411Z,86.46
2017-12-02T03:49:51.890Z,86.77
2017-12-02T03:52:19.353Z,86.85
2017-12-02T03:54:46.837Z,86.91
2017-12-02T03:57:14.313Z,86.65
2017-12-02T03:59:41.779Z,87.13
2017-12-02T04:02:09.335Z,86.52
2017-12-02T04:04:36.830Z,86.30
2017-12-02T04:07:04.299Z,85.73
2017-12-02T04:09:31.786Z,86.98
2017-12-02T04:11:59.268Z,87.07
2017-12-02T04:14:26.744Z,86.18
2017-12-02T04:16:54.244Z,86.72
2017-12-02T04:19:21.729Z,86.77
2017-12-02T04:21:49.235Z,86.17
2017-12-02T04:24:16.721Z,86.71
2017-12-02T04:26:44.180Z,87.06
2017-12-02T04:29:11.756Z,86.74
2017-12-02T04:31:39.242Z,86.23
2017-12-02T04:34:06.786Z,86.21
2017-12-02T04:36:34.337Z,86.11
2017-12-02T04:39:01.787Z,85.72
2017-12-02T04:41:29.273Z,85.83
2017-12-02T04:43:56.737Z,86.05
2017-12-02T04:46:24.265Z,86.04
2017-12-02T04:48:51.725Z,85.72
2017-12-02T04:51:19.210Z,86.09
2017-12-02T04:53:46.741Z,86.24
2017-12-02T04:56:14.219Z,86.19
2017-12-02T04:58:41.681Z,86.28
2017-12-02T05:01:09.203Z,86.46
2017-12-02T05:03:36.665Z,85.45
2017-12-02T05:06:04.145Z,85.12
2017-12-02T05:08:31.606Z,86.20
2017-12-02T05:10:59.093Z,85.74
2017-12-02T05:13:26.541Z,85.77
2017-12-02T05:15:54.073Z,84.91
2017-12-02T05:18:21.537Z,85.08
2017-12-02T05:20:49.027Z,85.95
2017-12-02T05:23:16.517Z,85.60
2017-12-02T05:25:43.982Z,85.87
2017-12-02T05:28:11.469Z,86.13
2017-12-02T05:30:38.937Z,85.51
2017-12-02T05:33:06.421Z,85.68
2017-12-02T05:35:33.915Z,86.09
2017-12-02T05:38:01.465Z,86.01
2017-12-02T05:40:28.975Z,85.47
2017-12-02T05:42:56.484Z,85.19
2017-12-02T05:45:23.944Z,86.61
2017-12-02T05:47:51.501Z,86.72
2017-12-02T05:50:19.053Z,85.78
2017-12-02T05:52:46.558Z,86.14
2017-12-02T05:55:14.039Z,85.76
2017-12-02T05:57:41.567Z,84.99
2017-12-02T06:00:09.047Z,85.14
2017-12-02T06:02:36.517Z,84.72
2017-12-02T06:05:04.095Z,85.08
2017-12-02T06:07:31.665Z,85.12
2017-12-02T06:09:59.135Z,84.99
2017-12-02T06:12:26.605Z,84.84
2017-12-02T06:14:54.082Z,85.19
2017-12-02T06:17:21.557Z,85.21
2017-12-02T06:19:49.029Z,85.26
2017-12-02T06:22:16.493Z,84.25
2017-12-02T06:24:43.987Z,84.89
2017-12-02T06:27:11.445Z,85.14
2017-12-02T06:29:38.925Z,83.64
2017-12-02T06:32:06.429Z,84.51
2017-12-02T06:34:33.908Z,85.59
2017-12-02T06:37:01.386Z,85.19
2017-12-02T06:39:28.865Z,85.04
2017-12-02T06:41:56.350Z,84.83
2017-12-02T06:44:23.826Z,84.72
2017-12-02T06:46:51.316Z,84.54
2017-12-02T06:49:18.777Z,85.43
2017-12-02T06:51:46.286Z,85.33
2017-12-02T06:54:13.767Z,85.62
2017-12-02T06:56:41.249Z,85.39
2017-12-02T06:59:08.772Z,85.07
2017-12-02T07:01:36.273Z,84.18
2017-12-02T07:04:03.729Z,84.33
2017-12-02T07:06:31.191Z,85.14
2017-12-02T07:08:58.663Z,85.39
2017-12-02T07:11:26.162Z,85.21
2017-12-02T07:13:53.604Z,84.68
2017-12-02T07:16:21.065Z,85.46
2017-12-02T07:18:48.548Z,84.77
2017-12-02T07:21:16.009Z,85.15
2017-12-02T07:23:43.475Z,85.40
2017-12-02T07:26:10.925Z,85.02
2017-12-02T07:28:38.412Z,84.86
2017-12-02T07:31:05.924Z,85.95
2017-12-02T07:33:33.409Z,85.66
2017-12-02T07:36:00.864Z,85.35
2017-12-02T07:38:28.366Z,85.40
2017-12-02T07:40:55.869Z,85.51
2017-12-02T07:43:23.315Z,85.07
2017-12-02T07:45:50.797Z,85.27
2017-12-02T07:48:18.267Z,86.58
2017-12-02T07:50:45.750Z,87.48
2017-12-02T07:53:13.227Z,86.96
2017-12-02T07:55:40.707Z,86.77
2017-12-02T07:58:08.181Z,86.47
2017-12-02T08:00:35.666Z,86.48
2017-12-02T08:03:03.154Z,86.66
2017-12-02T08:05:30.709Z,87.41
2017-12-02T08:07:58.179Z,86.09
2017-12-02T08:10:25.665Z,85.83
2017-12-02T08:12:53.132Z,85.39
2017-12-02T08:15:20.598Z,85.40
2017-12-02T08:17:48.064Z,84.89
2017-12-02T08:20:15.739Z,86.83
2017-12-02T08:22:43.210Z,87.23
2017-12-02T08:25:10.774Z,86.40
2017-12-02T08:27:38.245Z,86.41
2017-12-02T08:30:05.777Z,86.03
2017-12-02T08:32:33.341Z,87.66
2017-12-02T08:35:00.814Z,87.35
2017-12-02T08:37:28.300Z,87.95
2017-12-02T08:39:55.769Z,86.73
2017-12-02T08:42:23.359Z,87.03
2017-12-02T08:44:50.840Z,86.53
2017-12-02T08:47:18.366Z,86.72
2017-12-02T08:49:45.841Z,88.16
2017-12-02T08:52:13.315Z,87.60
2017-12-02T08:54:40.770Z,87.95
2017-12-02T08:57:08.262Z,87.42
2017-12-02T08:59:35.719Z,86.61
2017-12-02T09:02:03.217Z,86.78
2017-12-02T09:04:30.732Z,86.58
2017-12-02T09:06:58.193Z,86.76
2017-12-02T09:09:25.665Z,87.46
2017-12-02T09:11:53.248Z,87.87
2017-12-02T09:14:20.703Z,87.18
2017-12-02T09:16:48.210Z,86.93
2017-12-02T09:19:15.679Z,86.83
2017-12-02T09:21:43.166Z,86.50
2017-12-02T09:24:10.735Z,86.95
2017-12-02T09:26:38.302Z,86.18
2017-12-02T09:29:05.906Z,86.85
2017-12-02T09:31:33.413Z,86.93
2017-12-02T09:34:00.917Z,85.92
2017-12-02T09:36:28.385Z,85.06
2017-12-02T09:38:55.866Z,85.39
2017-12-02T09:41:23.324Z,83.22
2017-12-02T09:43:50.834Z,84.24
2017-12-02T09:46:18.302Z,85.24
2017-12-02T09:48:45.802Z,84.78
2017-12-02T09:51:13.280Z,84.66
2017-12-02T09:53:40.745Z,83.96
2017-12-02T09:56:08.233Z,84.61
2017-12-02T09:58:35.748Z,85.08
2017-12-02T10:01:03.223Z,85.35
2017-12-02T10:03:30.761Z,85.43
2017-12-02T10:05:58.528Z,85.44
2017-12-02T10:08:25.994Z,85.26
2017-12-02T10:10:53.542Z,85.68
2017-12-02T10:13:21.018Z,85.23
2017-12-02T10:15:48.508Z,84.70
2017-12-02T10:18:15.973Z,84.63
2017-12-02T10:20:43.470Z,84.45
2017-12-02T10:23:10.927Z,84.22
2017-12-02T10:25:38.581Z,84.32
2017-12-02T10:28:06.046Z,83.98
2017-12-02T10:30:33.521Z,83.78
2017-12-02T10:33:01.114Z,84.22
2017-12-02T10:35:28.601Z,83.50
2017-12-02T10:37:56.080Z,83.90
2017-12-02T10:40:23.541Z,83.90
2017-12-02T10:42:51.058Z,83.18
2017-12-02T10:45:18.520Z,83.83
2017-12-02T10:47:46.045Z,83.35
2017-12-02T10:50:13.499Z,83.52
2017-12-02T10:52:40.967Z,84.36
2017-12-02T10:55:08.476Z,84.02
2017-12-02T10:57:35.986Z,84.98
2017-12-02T11:00:03.446Z,84.73
2017-12-02T11:02:30.936Z,84.39
2017-12-02T11:04:58.430Z,84.61
2017-12-02T11:07:25.906Z,84.81
2017-12-02T11:09:53.377Z,84.45
2017-12-02T11:12:20.862Z,83.90
2017-12-02T11:14:48.350Z,84.10
2017-12-02T11:17:15.812Z,83.62
2017-12-02T11:19:43.346Z,83.63
2017-12-02T11:22:10.812Z,83.36
2017-12-02T11:24:38.361Z,82.92
2017-12-02T11:27:05.820Z,82.76
2017-12-02T11:29:33.332Z,83.10
2017-12-02T11:32:00.822Z,83.02
2017-12-02T11:34:28.317Z,82.67
2017-12-02T11:36:55.782Z,82.54
2017-12-02T11:39:23.299Z,82.54
2017-12-02T11:41:50.740Z,82.63
2017-12-02T11:44:18.239Z,82.05
2017-12-02T11:46:45.776Z,81.94
2017-12-02T11:49:13.243Z,81.98
2017-12-02T11:51:40.798Z,84.05
2017-12-02T11:54:08.334Z,84.96
2017-12-02T11:56:35.909Z,85.14
2017-12-02T11:59:03.369Z,84.83
2017-12-02T12:01:30.854Z,85.07
2017-12-02T12:03:58.381Z,84.84
2017-12-02T12:06:25.943Z,84.99
2017-12-02T12:08:53.391Z,84.63
2017-12-02T12:11:20.889Z,85.96
2017-12-02T12:13:48.413Z,86.01
2017-12-02T12:16:15.885Z,84.25
2017-12-02T12:18:43.372Z,83.71
2017-12-02T12:21:10.877Z,84.21
2017-12-02T12:23:38.485Z,84.28
2017-12-02T12:26:05.956Z,84.76
2017-12-02T12:28:33.438Z,84.93
2017-12-02T12:31:00.906Z,85.12
2017-12-02T12:33:28.384Z,85.26
2017-12-02T12:35:55.942Z,85.96
2017-12-02T12:38:23.415Z,84.89
2017-12-02T12:40:50.877Z,84.20
2017-12-02T12:43:18.405Z,85.12
2017-12-02T12:45:45.915Z,85.21
2017-12-02T12:48:13.392Z,85.28
2017-12-02T12:50:40.862Z,86.65
2017-12-02T12:53:08.325Z,86.96
2017-12-02T12:55:35.915Z,85.73
2017-12-02T12:58:03.382Z,86.04
2017-12-02T13:00:30.860Z,85.99
2017-12-02T13:02:58.334Z,86.47
2017-12-02T13:05:25.816Z,86.94
2017-12-02T13:07:53.444Z,87.53
2017-12-02T13:10:20.923Z,87.78
2017-12-02T13:12:48.393Z,87.89
2017-12-02T13:15:15.875Z,88.06
2017-12-02T13:17:43.395Z,88.53
2017-12-02T13:20:10.888Z,89.43
2017-12-02T13:22:38.355Z,89.91
2017-12-02T13:25:05.821Z,89.90
2017-12-02T13:27:33.313Z,90.41
2017-12-02T13:30:00.796Z,90.87
2017-12-02T13:32:28.285Z,91.17
2017-12-02T13:34:55.756Z,91.69
2017-12-02T13:37:24.229Z,91.57
2017-12-02T13:39:51.701Z,92.23
2017-12-02T13:42:19.188Z,92.75
2017-12-02T13:44:46.660Z,92.43
2017-12-02T13:47:14.145Z,92.26
2017-12-02T13:49:41.679Z,93.79
2017-12-02T13:52:09.176Z,94.06
2017-12-02T13:54:36.688Z,94.63
2017-12-02T13:57:04.188Z,94.39
2017-12-02T13:59:31.653Z,94.26
2017-12-02T14:01:59.161Z,94.73
2017-12-02T14:04:26.657Z,94.21
2017-12-02T14:06:54.113Z,94.42
2017-12-02T14:09:21.592Z,94.36
2017-12-02T14:11:49.071Z,94.29
2017-12-02T14:14:16.550Z,93.93
2017-12-02T14:16:44.014Z,93.93
2017-12-02T14:19:11.506Z,94.16
2017-12-02T14:21:38.976Z,93.94
2017-12-02T14:24:06.457Z,93.38
2017-12-02T14:26:33.925Z,92.69
2017-12-02T14:29:01.425Z,92.15
2017-12-02T14:31:28.890Z,91.69
2017-12-02T14:33:56.404Z,91.77
2017-12-02T14:36:23.861Z,91.60
2017-12-02T14:38:51.381Z,91.11
2017-12-02T14:41:18.873Z,90.56
2017-12-02T14:43:46.398Z,90.75
2017-12-02T14:46:13.862Z,91.10
2017-12-02T14:48:41.325Z,90.73
2017-12-02T14:51:08.826Z,89.77
2017-12-02T14:53:36.286Z,89.67
2017-12-02T14:56:03.817Z,89.65
2017-12-02T14:58:31.322Z,90.16
2017-12-02T15:00:58.821Z,90.31
2017-12-02T15:03:26.307Z,90.67
2017-12-02T15:05:53.796Z,90.83
2017-12-02T15:08:21.260Z,90.25
2017-12-02T15:10:48.823Z,90.38
2017-12-02T15:13:16.284Z,89.89
2017-12-02T15:15:43.779Z,90.91
2017-12-02T15:18:11.268Z,91.31
2017-12-02T15:20:38.818Z,91.62
2017-12-02T15:23:06.289Z,91.73
2017-12-02T15:25:33.758Z,91.99
2017-12-02T15:28:01.244Z,91.96
2017-12-02T15:30:28.699Z,92.25
2017-12-02T15:32:56.167Z,92.36
2017-12-02T15:35:23.619Z,92.65
2017-12-02T15:37:51.139Z,92.96
2017-12-02T15:40:18.650Z,92.71
2017-12-02T15:42:46.201Z,92.61
2017-12-02T15:45:13.757Z,92.48
2017-12-02T15:47:41.248Z,92.00
2017-12-02T15:50:08.730Z,92.05
2017-12-02T15:52:36.215Z,91.11
2017-12-02T15:55:03.683Z,90.50
2017-12-02T15:57:31.169Z,90.15
2017-12-02T15:59:58.701Z,89.67
2017-12-02T16:02:26.225Z,89.45
2017-12-02T16:04:53.688Z,88.88
2017-12-02T16:07:21.171Z,88.90
2017-12-02T16:09:48.846Z,87.82
2017-12-02T16:12:16.349Z,88.55
2017-12-02T16:14:43.811Z,88.85
2017-12-02T16:17:11.341Z,89.26
2017-12-02T16:19:38.868Z,89.28
2017-12-02T16:22:06.403Z,89.39
2017-12-02T16:24:36.090Z,89.39
2017-12-02T16:27:04.048Z,89.00
2017-12-02T16:29:31.532Z,89.24
2017-12-02T16:31:59.000Z,88.68
2017-12-02T16:34:28.872Z,88.25
2017-12-02T16:36:56.404Z,88.73
2017-12-02T16:39:23.939Z,88.78
2017-12-02T16:41:54.964Z,89.35
2017-12-02T16:44:22.449Z,90.03
2017-12-02T16:46:49.917Z,89.59
2017-12-02T16:49:17.916Z,89.43
2017-12-02T16:51:45.405Z,89.40
2017-12-02T16:54:12.889Z,89.22
2017-12-02T16:56:40.374Z,89.61
2017-12-02T16:59:07.881Z,89.61
2017-12-02T17:01:35.364Z,89.33
2017-12-02T17:04:02.825Z,89.53
2017-12-02T17:06:30.323Z,89.69
2017-12-02T17:08:57.789Z,90.55
2017-12-02T17:11:25.275Z,90.21
2017-12-02T17:13:52.740Z,89.13
2017-12-02T17:16:20.343Z,89.60
2017-12-02T17:18:47.810Z,89.62
2017-12-02T17:21:15.306Z,89.55
2017-12-02T17:23:46.489Z,89.54
2017-12-02T17:26:14.021Z,89.56
2017-12-02T17:28:41.581Z,89.46
2017-12-02T17:31:09.055Z,89.21
2017-12-02T17:33:36.597Z,89.73
2017-12-02T17:36:04.142Z,89.34
2017-12-02T17:38:31.705Z,89.61
2017-12-02T17:40:59.169Z,88.30
2017-12-02T17:43:26.657Z,88.21
2017-12-02T17:45:54.134Z,89.21
2017-12-02T17:48:21.618Z,89.48
2017-12-02T17:50:49.083Z,89.74
2017-12-02T17:53:16.587Z,89.72
2017-12-02T17:55:44.070Z,89.86
2017-12-02T17:58:11.557Z,89.93
2017-12-02T18:00:39.129Z,89.76
2017-12-02T18:03:06.622Z,90.28
2017-12-02T18:05:34.165Z,90.20
2017-12-02T18:08:01.705Z,90.39
2017-12-02T18:10:29.303Z,90.10
2017-12-02T18:12:56.792Z,89.86
2017-12-02T18:15:24.277Z,90.23
2017-12-02T18:17:51.749Z,90.31
2017-12-02T18:20:19.298Z,90.11
2017-12-02T18:22:46.784Z,90.33
2017-12-02T18:25:14.255Z,90.09
2017-12-02T18:27:41.712Z,90.21
2017-12-02T18:30:09.224Z,90.21
2017-12-02T18:32:36.775Z,90.23
2017-12-02T18:35:04.262Z,90.52
2017-12-02T18:37:31.789Z,91.08
2017-12-02T18:39:59.286Z,90.96
2017-12-02T18:42:26.752Z,90.68
2017-12-02T18:44:54.248Z,90.76
2017-12-02T18:47:21.779Z,90.69
2017-12-02T18:49:49.418Z,91.86
2017-12-02T18:52:16.885Z,92.15
2017-12-02T18:54:44.353Z,91.61
2017-12-02T18:57:15.478Z,90.97
2017-12-02T18:59:42.958Z,90.83
2017-12-02T19:02:12.952Z,90.82
2017-12-02T19:04:40.425Z,91.02
2017-12-02T19:07:07.905Z,90.69
2017-12-02T19:09:35.385Z,89.74
2017-12-02T19:12:02.864Z,89.57
2017-12-02T19:14:30.337Z,90.23
2017-12-02T19:16:57.829Z,90.52
2017-12-02T19:19:25.352Z,90.83
2017-12-02T19:21:52.873Z,90.26
2017-12-02T19:24:20.431Z,90.55
2017-12-02T19:26:47.913Z,90.07
2017-12-02T19:29:15.380Z,90.32
2017-12-02T19:31:42.842Z,90.62
2017-12-02T19:34:10.334Z,90.42
2017-12-02T19:36:40.429Z,89.74
2017-12-02T19:39:07.918Z,90.43
2017-12-02T19:41:35.394Z,90.52
2017-12-02T19:44:02.953Z,90.67
2017-12-02T19:46:30.419Z,90.87
2017-12-02T19:48:57.920Z,90.38
2017-12-02T19:51:25.421Z,90.61
2017-12-02T19:53:52.933Z,90.82
2017-12-02T19:56:20.401Z,90.65
2017-12-02T19:58:47.900Z,90.40
2017-12-02T20:01:15.355Z,90.30
2017-12-02T20:03:42.900Z,90.72
2017-12-02T20:06:10.365Z,91.65
2017-12-02T20:08:37.850Z,91.52
2017-12-02T20:11:05.316Z,91.13
2017-12-02T20:13:32.853Z,90.72
2017-12-02T20:16:00.326Z,90.62
2017-12-02T20:18:27.803Z,90.55
2017-12-02T20:20:55.266Z,90.20
2017-12-02T20:23:22.765Z,89.98
2017-12-02T20:25:50.255Z,89.94
2017-12-02T20:28:17.729Z,90.00
2017-12-02T20:30:45.229Z,89.96
2017-12-02T20:33:12.809Z,89.82
2017-12-02T20:35:40.318Z,90.00
2017-12-02T20:38:07.785Z,89.83
2017-12-02T20:40:35.282Z,89.54
2017-12-02T20:43:02.749Z,89.18
2017-12-02T20:45:30.223Z,88.04
2017-12-02T20:47:57.705Z,88.27
2017-12-02T20:50:25.317Z,88.69
2017-12-02T20:52:52.805Z,89.19
2017-12-02T20:55:20.275Z,89.11
2017-12-02T20:57:47.762Z,88.70
2017-12-02T21:00:15.368Z,88.52
2017-12-02T21:02:42.835Z,88.70
2017-12-02T21:05:10.369Z,89.01
2017-12-02T21:07:37.834Z,89.34
2017-12-02T21:10:05.359Z,89.11
2017-12-02T21:12:32.919Z,89.05
2017-12-02T21:15:00.405Z,89.24
2017-12-02T21:17:27.914Z,89.72
2017-12-02T21:19:55.377Z,89.35
2017-12-02T21:22:22.852Z,89.25
2017-12-02T21:24:50.397Z,89.49
2017-12-02T21:27:17.885Z,88.89
2017-12-02T21:29:45.356Z,87.79
2017-12-02T21:32:12.982Z,87.48
2017-12-02T21:34:40.549Z,85.34
2017-12-02T21:37:08.108Z,84.48
2017-12-02T21:39:35.574Z,85.44
2017-12-02T21:42:03.058Z,85.29
2017-12-02T21:44:30.511Z,85.45
2017-12-02T21:46:58.013Z,84.62
2017-12-02T21:49:25.472Z,83.70
2017-12-02T21:51:52.978Z,83.70
2017-12-02T21:54:20.436Z,84.03
2017-12-02T21:56:47.891Z,84.36
2017-12-02T21:59:15.381Z,83.76
2017-12-02T22:01:42.831Z,83.98
2017-12-02T22:04:10.319Z,85.58
2017-12-02T22:06:37.790Z,86.97
2017-12-02T22:09:05.282Z,87.58
2017-12-02T22:11:32.792Z,87.15
2017-12-02T22:14:00.276Z,87.20
2017-12-02T22:16:27.816Z,87.22
2017-12-02T22:18:55.286Z,86.75
2017-12-02T22:21:22.741Z,87.02
2017-12-02T22:23:50.303Z,87.17
2017-12-02T22:26:17.779Z,87.67
2017-12-02T22:28:45.274Z,87.93
2017-12-02T22:31:12.737Z,87.68
2017-12-02T22:33:40.210Z,88.03
2017-12-02T22:36:07.721Z,87.74
2017-12-02T22:38:35.196Z,88.32
2017-12-02T22:41:02.668Z,89.66
2017-12-02T22:43:30.133Z,89.50
2017-12-02T22:45:57.621Z,89.06
2017-12-02T22:48:25.141Z,89.01
2017-12-02T22:50:52.629Z,88.79
2017-12-02T22:53:20.150Z,88.91
2017-12-02T22:55:47.641Z,88.56
2017-12-02T22:58:15.132Z,88.66
2017-12-02T23:00:42.602Z,88.78
2017-12-02T23:03:10.084Z,88.13
2017-12-02T23:05:37.921Z,88.47
2017-12-02T23:08:05.467Z,88.28
2017-12-02T23:10:32.901Z,88.46
2017-12-02T23:13:00.385Z,88.24
2017-12-02T23:15:27.888Z,88.17
2017-12-02T23:17:55.359Z,88.01
2017-12-02T23:20:22.850Z,88.31
2017-12-02T23:22:50.352Z,88.42
2017-12-02T23:25:17.812Z,89.59
2017-12-02T23:27:45.304Z,89.67
2017-12-02T23:30:12.751Z,89.15
2017-12-02T23:32:40.288Z,88.47
2017-12-02T23:35:07.768Z,88.57
2017-12-02T23:37:35.347Z,89.61
2017-12-02T23:40:02.821Z,89.85
2017-12-02T23:42:30.312Z,89.66
2017-12-02T23:44:57.794Z,89.09
2017-12-02T23:47:25.265Z,88.88
2017-12-02T23:49:52.750Z,88.73
2017-12-02T23:52:20.248Z,88.63
2017-12-02T23:54:47.772Z,89.72
2017-12-02T23:57:15.237Z,89.92
2017-12-02T23:59:42.729Z,89.68
